sensor_id;sensor_type;location;lat;lon;timestamp;temperature;humidity
74822;DHT22;63353;48.702;8.884;2022-11-14T00:02:01;3.30;99.90
74822;DHT22;63353;48.702;8.884;2022-11-14T00:04:27;3.30;99.90
74822;DHT22;63353;48.702;8.884;2022-11-14T00:06:52;3.30;99.90
74822;DHT22;63353;48.702;8.884;2022-11-14T00:09:18;3.30;99.90
74822;DHT22;63353;48.702;8.884;2022-11-14T00:11:44;3.30;99.90
74822;DHT22;63353;48.702;8.884;2022-11-14T00:14:10;3.30;99.90
74822;DHT22;63353;48.702;8.884;2022-11-14T00:16:36;3.30;99.90
74822;DHT22;63353;48.702;8.884;2022-11-14T00:19:01;3.40;99.90
74822;DHT22;63353;48.702;8.884;2022-11-14T00:21:27;3.40;99.90
74822;DHT22;63353;48.702;8.884;2022-11-14T00:23:53;3.50;99.90
74822;DHT22;63353;48.702;8.884;2022-11-14T00:26:18;3.50;99.90
74822;DHT22;63353;48.702;8.884;2022-11-14T00:28:44;3.40;99.90
74822;DHT22;63353;48.702;8.884;2022-11-14T00:31:10;3.30;99.90
74822;DHT22;63353;48.702;8.884;2022-11-14T00:33:36;3.20;99.90
74822;DHT22;63353;48.702;8.884;2022-11-14T00:36:03;3.30;99.90
74822;DHT22;63353;48.702;8.884;2022-11-14T00:38:29;3.30;99.90
74822;DHT22;63353;48.702;8.884;2022-11-14T00:40:54;3.20;99.90
74822;DHT22;63353;48.702;8.884;2022-11-14T00:43:20;3.10;99.90
74822;DHT22;63353;48.702;8.884;2022-11-14T00:45:46;3.10;99.90
74822;DHT22;63353;48.702;8.884;2022-11-14T00:48:12;3.20;99.90
74822;DHT22;63353;48.702;8.884;2022-11-14T00:50:38;3.20;99.90
74822;DHT22;63353;48.702;8.884;2022-11-14T00:53:04;3.30;99.90
74822;DHT22;63353;48.702;8.884;2022-11-14T00:55:30;3.30;99.90
74822;DHT22;63353;48.702;8.884;2022-11-14T00:57:55;3.30;99.90
74822;DHT22;63353;48.702;8.884;2022-11-14T01:00:21;3.20;99.90
74822;DHT22;63353;48.702;8.884;2022-11-14T01:02:47;3.20;99.90
74822;DHT22;63353;48.702;8.884;2022-11-14T01:05:12;3.20;99.90
74822;DHT22;63353;48.702;8.884;2022-11-14T01:07:38;3.10;99.90
74822;DHT22;63353;48.702;8.884;2022-11-14T01:10:05;3.10;99.90
74822;DHT22;63353;48.702;8.884;2022-11-14T01:12:30;3.20;99.90
74822;DHT22;63353;48.702;8.884;2022-11-14T01:14:57;3.20;99.90
74822;DHT22;63353;48.702;8.884;2022-11-14T01:17:23;3.10;99.90
74822;DHT22;63353;48.702;8.884;2022-11-14T01:19:48;3.10;99.90
74822;DHT22;63353;48.702;8.884;2022-11-14T01:22:14;3.00;99.90
74822;DHT22;63353;48.702;8.884;2022-11-14T01:24:40;3.00;99.90
74822;DHT22;63353;48.702;8.884;2022-11-14T01:27:05;3.00;99.90
74822;DHT22;63353;48.702;8.884;2022-11-14T01:29:31;3.00;99.90
74822;DHT22;63353;48.702;8.884;2022-11-14T01:31:56;2.90;99.90
74822;DHT22;63353;48.702;8.884;2022-11-14T01:34:22;3.00;99.90
74822;DHT22;63353;48.702;8.884;2022-11-14T01:36:48;2.90;99.90
74822;DHT22;63353;48.702;8.884;2022-11-14T01:39:13;2.80;99.90
74822;DHT22;63353;48.702;8.884;2022-11-14T01:41:39;2.80;99.90
74822;DHT22;63353;48.702;8.884;2022-11-14T01:44:12;2.90;99.90
74822;DHT22;63353;48.702;8.884;2022-11-14T01:46:40;2.80;99.90
74822;DHT22;63353;48.702;8.884;2022-11-14T01:51:47;2.80;99.90
74822;DHT22;63353;48.702;8.884;2022-11-14T01:54:26;2.80;99.90
74822;DHT22;63353;48.702;8.884;2022-11-14T01:56:57;2.80;99.90
74822;DHT22;63353;48.702;8.884;2022-11-14T01:59:50;2.70;99.90
74822;DHT22;63353;48.702;8.884;2022-11-14T02:02:19;2.70;99.90
74822;DHT22;63353;48.702;8.884;2022-11-14T02:04:52;2.70;99.90
74822;DHT22;63353;48.702;8.884;2022-11-14T02:07:20;2.70;99.90
74822;DHT22;63353;48.702;8.884;2022-11-14T02:09:47;2.70;99.90
74822;DHT22;63353;48.702;8.884;2022-11-14T02:12:14;2.80;99.90
74822;DHT22;63353;48.702;8.884;2022-11-14T02:14:42;2.80;99.90
74822;DHT22;63353;48.702;8.884;2022-11-14T02:17:10;2.80;99.90
74822;DHT22;63353;48.702;8.884;2022-11-14T02:19:51;2.90;99.90
74822;DHT22;63353;48.702;8.884;2022-11-14T02:22:17;2.90;99.90
74822;DHT22;63353;48.702;8.884;2022-11-14T02:24:43;2.80;99.90
74822;DHT22;63353;48.702;8.884;2022-11-14T02:27:09;2.90;99.90
74822;DHT22;63353;48.702;8.884;2022-11-14T02:29:36;2.90;99.90
74822;DHT22;63353;48.702;8.884;2022-11-14T02:32:02;2.90;99.90
74822;DHT22;63353;48.702;8.884;2022-11-14T02:34:28;2.90;99.90
74822;DHT22;63353;48.702;8.884;2022-11-14T02:36:54;2.90;99.90
74822;DHT22;63353;48.702;8.884;2022-11-14T02:39:20;2.90;99.90
74822;DHT22;63353;48.702;8.884;2022-11-14T02:41:45;2.90;99.90
74822;DHT22;63353;48.702;8.884;2022-11-14T02:44:11;2.90;99.90
74822;DHT22;63353;48.702;8.884;2022-11-14T02:46:37;2.90;99.90
74822;DHT22;63353;48.702;8.884;2022-11-14T02:49:02;3.00;99.90
74822;DHT22;63353;48.702;8.884;2022-11-14T02:51:28;2.90;99.90
74822;DHT22;63353;48.702;8.884;2022-11-14T02:53:53;2.80;99.90
74822;DHT22;63353;48.702;8.884;2022-11-14T02:56:19;2.90;99.90
74822;DHT22;63353;48.702;8.884;2022-11-14T02:58:45;2.80;99.90
74822;DHT22;63353;48.702;8.884;2022-11-14T03:01:10;2.70;99.90
74822;DHT22;63353;48.702;8.884;2022-11-14T03:03:36;2.70;99.90
74822;DHT22;63353;48.702;8.884;2022-11-14T03:06:02;2.70;99.90
74822;DHT22;63353;48.702;8.884;2022-11-14T03:08:28;2.60;99.90
74822;DHT22;63353;48.702;8.884;2022-11-14T03:10:54;2.60;99.90
74822;DHT22;63353;48.702;8.884;2022-11-14T03:13:20;2.60;99.90
74822;DHT22;63353;48.702;8.884;2022-11-14T03:15:46;2.60;99.90
74822;DHT22;63353;48.702;8.884;2022-11-14T03:18:12;2.70;99.90
74822;DHT22;63353;48.702;8.884;2022-11-14T03:20:38;2.80;99.90
74822;DHT22;63353;48.702;8.884;2022-11-14T03:23:04;2.80;99.90
74822;DHT22;63353;48.702;8.884;2022-11-14T03:25:30;2.90;99.90
74822;DHT22;63353;48.702;8.884;2022-11-14T03:27:55;2.90;99.90
74822;DHT22;63353;48.702;8.884;2022-11-14T03:30:21;2.80;99.90
74822;DHT22;63353;48.702;8.884;2022-11-14T03:32:46;2.90;99.90
74822;DHT22;63353;48.702;8.884;2022-11-14T03:35:12;2.90;99.90
74822;DHT22;63353;48.702;8.884;2022-11-14T03:37:38;2.90;99.90
74822;DHT22;63353;48.702;8.884;2022-11-14T03:40:04;2.90;99.90
74822;DHT22;63353;48.702;8.884;2022-11-14T03:42:32;2.80;99.90
74822;DHT22;63353;48.702;8.884;2022-11-14T03:44:59;2.70;99.90
74822;DHT22;63353;48.702;8.884;2022-11-14T03:47:25;2.70;99.90
74822;DHT22;63353;48.702;8.884;2022-11-14T03:49:50;2.80;99.90
74822;DHT22;63353;48.702;8.884;2022-11-14T03:52:16;2.80;99.90
74822;DHT22;63353;48.702;8.884;2022-11-14T03:54:42;2.80;99.90
74822;DHT22;63353;48.702;8.884;2022-11-14T03:57:07;2.80;99.90
74822;DHT22;63353;48.702;8.884;2022-11-14T03:59:33;2.80;99.90
74822;DHT22;63353;48.702;8.884;2022-11-14T04:01:58;2.80;99.90
74822;DHT22;63353;48.702;8.884;2022-11-14T04:04:24;3.00;99.90
74822;DHT22;63353;48.702;8.884;2022-11-14T04:06:49;3.00;99.90
74822;DHT22;63353;48.702;8.884;2022-11-14T04:09:15;3.00;99.90
74822;DHT22;63353;48.702;8.884;2022-11-14T04:11:41;3.00;99.90
74822;DHT22;63353;48.702;8.884;2022-11-14T04:14:06;2.90;99.90
74822;DHT22;63353;48.702;8.884;2022-11-14T04:16:32;3.10;99.90
74822;DHT22;63353;48.702;8.884;2022-11-14T04:18:57;3.00;99.90
74822;DHT22;63353;48.702;8.884;2022-11-14T04:21:23;2.90;99.90
74822;DHT22;63353;48.702;8.884;2022-11-14T04:23:49;2.90;99.90
74822;DHT22;63353;48.702;8.884;2022-11-14T04:26:14;2.90;99.90
74822;DHT22;63353;48.702;8.884;2022-11-14T04:28:40;2.80;99.90
74822;DHT22;63353;48.702;8.884;2022-11-14T04:31:05;2.80;99.90
74822;DHT22;63353;48.702;8.884;2022-11-14T04:33:31;2.90;99.90
74822;DHT22;63353;48.702;8.884;2022-11-14T04:35:56;2.80;99.90
74822;DHT22;63353;48.702;8.884;2022-11-14T04:38:22;2.80;99.90
74822;DHT22;63353;48.702;8.884;2022-11-14T04:40:49;2.80;99.90
74822;DHT22;63353;48.702;8.884;2022-11-14T04:43:15;2.70;99.90
74822;DHT22;63353;48.702;8.884;2022-11-14T04:45:41;2.80;99.90
74822;DHT22;63353;48.702;8.884;2022-11-14T04:48:07;2.80;99.90
74822;DHT22;63353;48.702;8.884;2022-11-14T04:50:32;2.90;99.90
74822;DHT22;63353;48.702;8.884;2022-11-14T04:52:58;2.80;99.90
74822;DHT22;63353;48.702;8.884;2022-11-14T04:55:24;2.90;99.90
74822;DHT22;63353;48.702;8.884;2022-11-14T04:57:57;3.00;99.90
74822;DHT22;63353;48.702;8.884;2022-11-14T05:00:23;3.00;99.90
74822;DHT22;63353;48.702;8.884;2022-11-14T05:02:49;3.00;99.90
74822;DHT22;63353;48.702;8.884;2022-11-14T05:05:14;3.10;99.90
74822;DHT22;63353;48.702;8.884;2022-11-14T05:07:40;3.00;99.90
74822;DHT22;63353;48.702;8.884;2022-11-14T05:10:07;2.90;99.90
74822;DHT22;63353;48.702;8.884;2022-11-14T05:12:33;2.90;99.90
74822;DHT22;63353;48.702;8.884;2022-11-14T05:14:58;2.90;99.90
74822;DHT22;63353;48.702;8.884;2022-11-14T05:17:24;2.80;99.90
74822;DHT22;63353;48.702;8.884;2022-11-14T05:19:50;2.80;99.90
74822;DHT22;63353;48.702;8.884;2022-11-14T05:22:16;2.90;99.90
74822;DHT22;63353;48.702;8.884;2022-11-14T05:24:42;2.70;99.90
74822;DHT22;63353;48.702;8.884;2022-11-14T05:27:07;2.70;99.90
74822;DHT22;63353;48.702;8.884;2022-11-14T05:29:33;2.70;99.90
74822;DHT22;63353;48.702;8.884;2022-11-14T05:31:58;2.70;99.90
74822;DHT22;63353;48.702;8.884;2022-11-14T05:34:25;2.70;99.90
74822;DHT22;63353;48.702;8.884;2022-11-14T05:36:51;2.60;99.90
74822;DHT22;63353;48.702;8.884;2022-11-14T05:39:16;2.60;99.90
74822;DHT22;63353;48.702;8.884;2022-11-14T05:41:42;2.60;99.90
74822;DHT22;63353;48.702;8.884;2022-11-14T05:44:08;2.50;99.90
74822;DHT22;63353;48.702;8.884;2022-11-14T05:46:34;2.50;99.90
74822;DHT22;63353;48.702;8.884;2022-11-14T05:48:59;2.60;99.90
74822;DHT22;63353;48.702;8.884;2022-11-14T05:51:25;2.70;99.90
74822;DHT22;63353;48.702;8.884;2022-11-14T05:53:51;2.70;99.90
74822;DHT22;63353;48.702;8.884;2022-11-14T05:56:16;2.70;99.90
74822;DHT22;63353;48.702;8.884;2022-11-14T05:58:42;2.70;99.90
74822;DHT22;63353;48.702;8.884;2022-11-14T06:01:16;2.60;99.90
74822;DHT22;63353;48.702;8.884;2022-11-14T06:03:44;2.40;99.90
74822;DHT22;63353;48.702;8.884;2022-11-14T06:06:12;2.40;99.90
74822;DHT22;63353;48.702;8.884;2022-11-14T06:08:38;2.60;99.90
74822;DHT22;63353;48.702;8.884;2022-11-14T06:11:10;2.70;99.90
74822;DHT22;63353;48.702;8.884;2022-11-14T06:13:36;2.80;99.90
74822;DHT22;63353;48.702;8.884;2022-11-14T06:16:04;2.70;99.90
74822;DHT22;63353;48.702;8.884;2022-11-14T06:18:31;2.70;99.90
74822;DHT22;63353;48.702;8.884;2022-11-14T06:21:02;2.80;99.90
74822;DHT22;63353;48.702;8.884;2022-11-14T06:23:28;2.80;99.90
74822;DHT22;63353;48.702;8.884;2022-11-14T06:26:01;2.80;99.90
74822;DHT22;63353;48.702;8.884;2022-11-14T06:28:28;2.90;99.90
74822;DHT22;63353;48.702;8.884;2022-11-14T06:30:58;2.90;99.90
74822;DHT22;63353;48.702;8.884;2022-11-14T06:33:25;3.00;99.90
74822;DHT22;63353;48.702;8.884;2022-11-14T06:35:56;3.10;99.90
74822;DHT22;63353;48.702;8.884;2022-11-14T06:38:22;3.30;99.90
74822;DHT22;63353;48.702;8.884;2022-11-14T06:40:48;3.20;99.90
74822;DHT22;63353;48.702;8.884;2022-11-14T06:43:13;3.30;99.90
74822;DHT22;63353;48.702;8.884;2022-11-14T06:45:39;3.40;99.90
74822;DHT22;63353;48.702;8.884;2022-11-14T06:48:05;3.30;99.90
74822;DHT22;63353;48.702;8.884;2022-11-14T06:50:31;3.30;99.90
74822;DHT22;63353;48.702;8.884;2022-11-14T06:52:57;3.30;99.90
74822;DHT22;63353;48.702;8.884;2022-11-14T06:55:23;3.30;99.90
74822;DHT22;63353;48.702;8.884;2022-11-14T06:57:55;3.40;99.90
74822;DHT22;63353;48.702;8.884;2022-11-14T07:00:21;3.40;99.90
74822;DHT22;63353;48.702;8.884;2022-11-14T07:02:47;3.40;99.90
74822;DHT22;63353;48.702;8.884;2022-11-14T07:05:13;3.40;99.90
74822;DHT22;63353;48.702;8.884;2022-11-14T07:07:39;3.50;99.90
74822;DHT22;63353;48.702;8.884;2022-11-14T07:10:05;3.50;99.90
74822;DHT22;63353;48.702;8.884;2022-11-14T07:12:31;3.50;99.90
74822;DHT22;63353;48.702;8.884;2022-11-14T07:14:57;3.50;99.90
74822;DHT22;63353;48.702;8.884;2022-11-14T07:17:23;3.60;99.90
74822;DHT22;63353;48.702;8.884;2022-11-14T07:19:49;3.60;99.90
74822;DHT22;63353;48.702;8.884;2022-11-14T07:22:14;3.70;99.90
74822;DHT22;63353;48.702;8.884;2022-11-14T07:24:40;3.70;99.90
74822;DHT22;63353;48.702;8.884;2022-11-14T07:27:06;3.80;99.90
74822;DHT22;63353;48.702;8.884;2022-11-14T07:29:35;4.00;99.90
74822;DHT22;63353;48.702;8.884;2022-11-14T07:32:00;4.00;99.90
74822;DHT22;63353;48.702;8.884;2022-11-14T07:34:26;4.10;99.90
74822;DHT22;63353;48.702;8.884;2022-11-14T07:36:52;4.10;99.90
74822;DHT22;63353;48.702;8.884;2022-11-14T07:39:19;4.20;99.90
74822;DHT22;63353;48.702;8.884;2022-11-14T07:41:45;4.40;99.90
74822;DHT22;63353;48.702;8.884;2022-11-14T07:44:10;4.30;99.90
74822;DHT22;63353;48.702;8.884;2022-11-14T07:46:36;4.30;99.90
74822;DHT22;63353;48.702;8.884;2022-11-14T07:49:02;4.40;99.90
74822;DHT22;63353;48.702;8.884;2022-11-14T07:51:27;4.60;99.90
74822;DHT22;63353;48.702;8.884;2022-11-14T07:53:54;4.60;99.90
74822;DHT22;63353;48.702;8.884;2022-11-14T07:56:19;4.70;99.90
74822;DHT22;63353;48.702;8.884;2022-11-14T07:58:46;4.80;99.90
74822;DHT22;63353;48.702;8.884;2022-11-14T08:01:12;4.90;99.90
74822;DHT22;63353;48.702;8.884;2022-11-14T08:03:39;4.90;99.90
74822;DHT22;63353;48.702;8.884;2022-11-14T08:06:13;5.10;99.90
74822;DHT22;63353;48.702;8.884;2022-11-14T08:08:39;5.20;99.90
74822;DHT22;63353;48.702;8.884;2022-11-14T08:11:04;5.20;99.90
74822;DHT22;63353;48.702;8.884;2022-11-14T08:13:30;5.30;99.90
74822;DHT22;63353;48.702;8.884;2022-11-14T08:15:56;5.50;99.90
74822;DHT22;63353;48.702;8.884;2022-11-14T08:18:24;5.50;99.90
74822;DHT22;63353;48.702;8.884;2022-11-14T08:20:49;5.60;99.90
74822;DHT22;63353;48.702;8.884;2022-11-14T08:23:15;5.70;99.90
74822;DHT22;63353;48.702;8.884;2022-11-14T08:25:41;5.80;99.90
74822;DHT22;63353;48.702;8.884;2022-11-14T08:28:07;5.90;99.90
74822;DHT22;63353;48.702;8.884;2022-11-14T08:30:33;6.10;99.90
74822;DHT22;63353;48.702;8.884;2022-11-14T08:33:03;6.10;99.90
74822;DHT22;63353;48.702;8.884;2022-11-14T08:35:29;6.10;99.90
74822;DHT22;63353;48.702;8.884;2022-11-14T08:37:54;6.10;99.90
74822;DHT22;63353;48.702;8.884;2022-11-14T08:40:20;6.20;99.90
74822;DHT22;63353;48.702;8.884;2022-11-14T08:42:46;6.20;99.90
74822;DHT22;63353;48.702;8.884;2022-11-14T08:45:11;6.20;99.90
74822;DHT22;63353;48.702;8.884;2022-11-14T08:47:37;6.30;99.90
74822;DHT22;63353;48.702;8.884;2022-11-14T08:50:03;6.30;99.90
74822;DHT22;63353;48.702;8.884;2022-11-14T08:52:29;6.40;99.90
74822;DHT22;63353;48.702;8.884;2022-11-14T08:54:54;6.50;99.90
74822;DHT22;63353;48.702;8.884;2022-11-14T08:57:20;6.50;99.90
74822;DHT22;63353;48.702;8.884;2022-11-14T08:59:45;6.60;99.90
74822;DHT22;63353;48.702;8.884;2022-11-14T09:02:12;6.80;99.90
74822;DHT22;63353;48.702;8.884;2022-11-14T09:04:38;6.70;99.90
74822;DHT22;63353;48.702;8.884;2022-11-14T09:07:04;6.70;99.90
74822;DHT22;63353;48.702;8.884;2022-11-14T09:09:30;6.70;99.90
74822;DHT22;63353;48.702;8.884;2022-11-14T09:11:55;6.70;99.90
74822;DHT22;63353;48.702;8.884;2022-11-14T09:14:21;6.80;99.90
74822;DHT22;63353;48.702;8.884;2022-11-14T09:16:47;6.80;99.90
74822;DHT22;63353;48.702;8.884;2022-11-14T09:19:12;6.80;99.90
74822;DHT22;63353;48.702;8.884;2022-11-14T09:21:38;6.90;99.90
74822;DHT22;63353;48.702;8.884;2022-11-14T09:24:04;7.00;99.90
74822;DHT22;63353;48.702;8.884;2022-11-14T09:26:30;7.20;99.90
74822;DHT22;63353;48.702;8.884;2022-11-14T09:28:56;7.20;99.90
74822;DHT22;63353;48.702;8.884;2022-11-14T09:31:21;7.20;99.90
74822;DHT22;63353;48.702;8.884;2022-11-14T09:33:47;7.30;99.90
74822;DHT22;63353;48.702;8.884;2022-11-14T09:36:13;7.30;99.90
74822;DHT22;63353;48.702;8.884;2022-11-14T09:38:41;7.40;99.90
74822;DHT22;63353;48.702;8.884;2022-11-14T09:46:30;7.40;99.90
74822;DHT22;63353;48.702;8.884;2022-11-14T09:48:57;7.40;99.90
74822;DHT22;63353;48.702;8.884;2022-11-14T09:51:38;7.50;99.90
74822;DHT22;63353;48.702;8.884;2022-11-14T09:56:41;7.50;99.90
74822;DHT22;63353;48.702;8.884;2022-11-14T09:59:11;7.60;99.90
74822;DHT22;63353;48.702;8.884;2022-11-14T10:10:08;7.90;99.90
74822;DHT22;63353;48.702;8.884;2022-11-14T10:16:01;8.10;99.90
74822;DHT22;63353;48.702;8.884;2022-11-14T10:27:54;8.40;99.90
74822;DHT22;63353;48.702;8.884;2022-11-14T10:30:17;8.40;99.90
74822;DHT22;63353;48.702;8.884;2022-11-14T10:32:57;8.50;99.90
74822;DHT22;63353;48.702;8.884;2022-11-14T10:38:19;8.50;99.90
74822;DHT22;63353;48.702;8.884;2022-11-14T10:40:51;8.40;99.90
74822;DHT22;63353;48.702;8.884;2022-11-14T10:43:48;8.50;99.90
74822;DHT22;63353;48.702;8.884;2022-11-14T10:46:16;8.60;99.90
74822;DHT22;63353;48.702;8.884;2022-11-14T10:48:45;8.60;99.90
74822;DHT22;63353;48.702;8.884;2022-11-14T10:54:03;8.60;99.90
74822;DHT22;63353;48.702;8.884;2022-11-14T10:56:30;8.60;99.90
74822;DHT22;63353;48.702;8.884;2022-11-14T10:58:55;8.70;99.90
74822;DHT22;63353;48.702;8.884;2022-11-14T11:01:40;8.70;99.90
74822;DHT22;63353;48.702;8.884;2022-11-14T11:04:27;8.80;99.90
74822;DHT22;63353;48.702;8.884;2022-11-14T11:06:55;9.10;99.90
74822;DHT22;63353;48.702;8.884;2022-11-14T11:09:26;9.20;99.90
74822;DHT22;63353;48.702;8.884;2022-11-14T11:12:19;9.30;99.90
74822;DHT22;63353;48.702;8.884;2022-11-14T11:20:35;9.30;99.90
74822;DHT22;63353;48.702;8.884;2022-11-14T11:23:05;9.30;99.90
74822;DHT22;63353;48.702;8.884;2022-11-14T11:25:32;9.30;99.90
74822;DHT22;63353;48.702;8.884;2022-11-14T11:28:16;9.30;99.90
74822;DHT22;63353;48.702;8.884;2022-11-14T11:30:55;9.20;99.90
74822;DHT22;63353;48.702;8.884;2022-11-14T11:33:24;9.10;99.90
74822;DHT22;63353;48.702;8.884;2022-11-14T11:35:54;9.10;99.90
74822;DHT22;63353;48.702;8.884;2022-11-14T11:38:24;9.10;99.90
74822;DHT22;63353;48.702;8.884;2022-11-14T11:40:53;9.00;99.90
74822;DHT22;63353;48.702;8.884;2022-11-14T11:43:25;9.10;99.90
74822;DHT22;63353;48.702;8.884;2022-11-14T11:45:53;9.10;99.90
74822;DHT22;63353;48.702;8.884;2022-11-14T11:48:21;9.10;99.90
74822;DHT22;63353;48.702;8.884;2022-11-14T11:50:48;9.20;99.90
74822;DHT22;63353;48.702;8.884;2022-11-14T11:55:47;9.20;99.90
74822;DHT22;63353;48.702;8.884;2022-11-14T11:58:20;9.20;99.90
74822;DHT22;63353;48.702;8.884;2022-11-14T12:00:50;9.30;99.90
74822;DHT22;63353;48.702;8.884;2022-11-14T12:03:16;9.40;99.90
74822;DHT22;63353;48.702;8.884;2022-11-14T12:09:20;9.50;99.90
74822;DHT22;63353;48.702;8.884;2022-11-14T12:11:53;9.50;99.90
74822;DHT22;63353;48.702;8.884;2022-11-14T12:18:03;9.80;99.90
74822;DHT22;63353;48.702;8.884;2022-11-14T12:30:48;10.70;99.90
74822;DHT22;63353;48.702;8.884;2022-11-14T12:35:54;11.00;99.90
74822;DHT22;63353;48.702;8.884;2022-11-14T12:38:21;11.20;99.90
74822;DHT22;63353;48.702;8.884;2022-11-14T12:40:57;11.40;99.90
74822;DHT22;63353;48.702;8.884;2022-11-14T12:43:44;11.50;99.90
74822;DHT22;63353;48.702;8.884;2022-11-14T12:46:11;11.50;99.90
74822;DHT22;63353;48.702;8.884;2022-11-14T12:48:44;11.50;99.90
74822;DHT22;63353;48.702;8.884;2022-11-14T12:53:53;11.50;99.90
74822;DHT22;63353;48.702;8.884;2022-11-14T13:12:32;11.70;99.90
74822;DHT22;63353;48.702;8.884;2022-11-14T13:15:27;11.70;99.90
74822;DHT22;63353;48.702;8.884;2022-11-14T13:21:03;11.60;99.90
74822;DHT22;63353;48.702;8.884;2022-11-14T13:28:44;11.60;99.90
74822;DHT22;63353;48.702;8.884;2022-11-14T13:33:45;12.00;99.90
74822;DHT22;63353;48.702;8.884;2022-11-14T13:50:12;12.50;99.90
74822;DHT22;63353;48.702;8.884;2022-11-14T13:52:45;12.20;99.90
74822;DHT22;63353;48.702;8.884;2022-11-14T13:55:36;11.90;99.90
74822;DHT22;63353;48.702;8.884;2022-11-14T13:58:14;12.10;99.90
74822;DHT22;63353;48.702;8.884;2022-11-14T14:04:01;11.80;99.90
74822;DHT22;63353;48.702;8.884;2022-11-14T14:31:07;12.00;99.90
74822;DHT22;63353;48.702;8.884;2022-11-14T14:33:43;12.00;99.90
74822;DHT22;63353;48.702;8.884;2022-11-14T14:38:45;12.40;99.90
74822;DHT22;63353;48.702;8.884;2022-11-14T14:41:12;12.40;99.90
74822;DHT22;63353;48.702;8.884;2022-11-14T14:43:40;12.70;99.90
74822;DHT22;63353;48.702;8.884;2022-11-14T14:46:07;12.80;99.90
74822;DHT22;63353;48.702;8.884;2022-11-14T14:48:35;12.70;99.90
74822;DHT22;63353;48.702;8.884;2022-11-14T14:51:02;12.20;99.90
74822;DHT22;63353;48.702;8.884;2022-11-14T14:53:33;11.90;99.90
74822;DHT22;63353;48.702;8.884;2022-11-14T14:58:26;11.40;99.90
74822;DHT22;63353;48.702;8.884;2022-11-14T15:01:04;11.20;99.90
74822;DHT22;63353;48.702;8.884;2022-11-14T15:03:42;11.00;99.90
74822;DHT22;63353;48.702;8.884;2022-11-14T15:09:23;10.80;99.90
74822;DHT22;63353;48.702;8.884;2022-11-14T15:11:52;10.80;99.90
74822;DHT22;63353;48.702;8.884;2022-11-14T15:14:23;10.70;99.90
74822;DHT22;63353;48.702;8.884;2022-11-14T15:16:49;10.50;99.90
74822;DHT22;63353;48.702;8.884;2022-11-14T15:19:24;10.40;99.90
74822;DHT22;63353;48.702;8.884;2022-11-14T15:22:01;10.40;99.90
74822;DHT22;63353;48.702;8.884;2022-11-14T15:24:27;10.30;99.90
74822;DHT22;63353;48.702;8.884;2022-11-14T15:26:53;10.20;99.90
74822;DHT22;63353;48.702;8.884;2022-11-14T15:29:21;10.10;99.90
74822;DHT22;63353;48.702;8.884;2022-11-14T15:31:50;10.00;99.90
74822;DHT22;63353;48.702;8.884;2022-11-14T15:39:39;9.80;99.90
74822;DHT22;63353;48.702;8.884;2022-11-14T15:44:56;9.70;99.90
74822;DHT22;63353;48.702;8.884;2022-11-14T15:47:27;9.60;99.90
74822;DHT22;63353;48.702;8.884;2022-11-14T15:50:29;9.60;99.90
74822;DHT22;63353;48.702;8.884;2022-11-14T15:55:27;9.30;99.90
74822;DHT22;63353;48.702;8.884;2022-11-14T15:57:53;9.20;99.90
74822;DHT22;63353;48.702;8.884;2022-11-14T16:00:18;9.10;99.90
74822;DHT22;63353;48.702;8.884;2022-11-14T16:02:51;9.10;99.90
74822;DHT22;63353;48.702;8.884;2022-11-14T16:05:28;9.10;99.90
74822;DHT22;63353;48.702;8.884;2022-11-14T16:07:54;9.00;99.90
74822;DHT22;63353;48.702;8.884;2022-11-14T16:10:22;9.10;99.90
74822;DHT22;63353;48.702;8.884;2022-11-14T16:12:48;9.00;99.90
74822;DHT22;63353;48.702;8.884;2022-11-14T16:15:15;9.00;99.90
74822;DHT22;63353;48.702;8.884;2022-11-14T16:17:43;8.90;99.90
74822;DHT22;63353;48.702;8.884;2022-11-14T16:20:18;8.90;99.90
74822;DHT22;63353;48.702;8.884;2022-11-14T16:22:45;8.80;99.90
74822;DHT22;63353;48.702;8.884;2022-11-14T16:25:24;8.70;99.90
74822;DHT22;63353;48.702;8.884;2022-11-14T16:27:50;8.60;99.90
74822;DHT22;63353;48.702;8.884;2022-11-14T16:30:17;8.60;99.90
74822;DHT22;63353;48.702;8.884;2022-11-14T16:32:45;8.50;99.90
74822;DHT22;63353;48.702;8.884;2022-11-14T16:35:16;8.50;99.90
74822;DHT22;63353;48.702;8.884;2022-11-14T16:37:43;8.70;99.90
74822;DHT22;63353;48.702;8.884;2022-11-14T16:40:15;8.70;99.90
74822;DHT22;63353;48.702;8.884;2022-11-14T16:42:41;8.70;99.90
74822;DHT22;63353;48.702;8.884;2022-11-14T16:45:07;8.70;99.90
74822;DHT22;63353;48.702;8.884;2022-11-14T16:47:33;8.70;99.90
74822;DHT22;63353;48.702;8.884;2022-11-14T16:49:59;8.80;99.90
74822;DHT22;63353;48.702;8.884;2022-11-14T16:52:25;9.10;99.90
74822;DHT22;63353;48.702;8.884;2022-11-14T16:54:51;9.10;99.90
74822;DHT22;63353;48.702;8.884;2022-11-14T16:57:17;9.10;99.90
74822;DHT22;63353;48.702;8.884;2022-11-14T16:59:42;9.20;99.90
74822;DHT22;63353;48.702;8.884;2022-11-14T17:02:14;9.20;99.90
74822;DHT22;63353;48.702;8.884;2022-11-14T17:04:41;9.20;99.90
74822;DHT22;63353;48.702;8.884;2022-11-14T17:07:07;9.20;99.90
74822;DHT22;63353;48.702;8.884;2022-11-14T17:09:33;9.20;99.90
74822;DHT22;63353;48.702;8.884;2022-11-14T17:11:59;9.10;99.90
74822;DHT22;63353;48.702;8.884;2022-11-14T17:14:25;9.10;99.90
74822;DHT22;63353;48.702;8.884;2022-11-14T17:16:50;9.10;99.90
74822;DHT22;63353;48.702;8.884;2022-11-14T17:19:16;9.10;99.90
74822;DHT22;63353;48.702;8.884;2022-11-14T17:21:42;9.00;99.90
74822;DHT22;63353;48.702;8.884;2022-11-14T17:24:08;9.00;99.90
74822;DHT22;63353;48.702;8.884;2022-11-14T17:26:34;9.00;99.90
74822;DHT22;63353;48.702;8.884;2022-11-14T17:29:01;9.00;99.90
74822;DHT22;63353;48.702;8.884;2022-11-14T17:31:27;8.90;99.90
74822;DHT22;63353;48.702;8.884;2022-11-14T17:33:54;8.90;99.90
74822;DHT22;63353;48.702;8.884;2022-11-14T17:36:21;8.90;99.90
74822;DHT22;63353;48.702;8.884;2022-11-14T17:38:47;8.90;99.90
74822;DHT22;63353;48.702;8.884;2022-11-14T17:41:12;8.80;99.90
74822;DHT22;63353;48.702;8.884;2022-11-14T17:43:38;8.80;99.90
74822;DHT22;63353;48.702;8.884;2022-11-14T17:46:04;8.80;99.90
74822;DHT22;63353;48.702;8.884;2022-11-14T17:48:31;8.90;99.90
74822;DHT22;63353;48.702;8.884;2022-11-14T17:51:05;8.90;99.90
74822;DHT22;63353;48.702;8.884;2022-11-14T17:53:32;8.80;99.90
74822;DHT22;63353;48.702;8.884;2022-11-14T17:55:58;8.70;99.90
74822;DHT22;63353;48.702;8.884;2022-11-14T17:58:29;8.70;99.90
74822;DHT22;63353;48.702;8.884;2022-11-14T18:00:55;8.70;99.90
74822;DHT22;63353;48.702;8.884;2022-11-14T18:03:23;8.80;99.90
74822;DHT22;63353;48.702;8.884;2022-11-14T18:05:49;8.80;99.90
74822;DHT22;63353;48.702;8.884;2022-11-14T18:08:14;8.90;99.90
74822;DHT22;63353;48.702;8.884;2022-11-14T18:10:40;8.90;99.90
74822;DHT22;63353;48.702;8.884;2022-11-14T18:13:06;9.00;99.90
74822;DHT22;63353;48.702;8.884;2022-11-14T18:15:32;9.10;99.90
74822;DHT22;63353;48.702;8.884;2022-11-14T18:17:59;8.90;99.90
74822;DHT22;63353;48.702;8.884;2022-11-14T18:20:25;8.90;99.90
74822;DHT22;63353;48.702;8.884;2022-11-14T18:22:51;8.80;99.90
74822;DHT22;63353;48.702;8.884;2022-11-14T18:25:16;8.70;99.90